createdAt,value
2023-03-13T00:01:38.298Z,2.80
2023-03-13T00:06:45.161Z,2.90
2023-03-13T00:11:52.971Z,2.80
2023-03-13T00:17:00.288Z,2.80
2023-03-13T00:22:07.497Z,2.90
2023-03-13T00:27:14.475Z,3.10
2023-03-13T00:32:21.484Z,3.20
2023-03-13T00:37:28.262Z,3.10
2023-03-13T00:42:35.232Z,3.20
2023-03-13T00:47:42.522Z,3.30
2023-03-13T00:52:49.738Z,3.40
2023-03-13T00:57:56.646Z,3.20
2023-03-13T01:03:03.832Z,3.00
2023-03-13T01:08:10.738Z,3.00
2023-03-13T01:13:17.736Z,3.20
2023-03-13T01:18:24.861Z,3.30
2023-03-13T01:23:32.016Z,3.50
2023-03-13T01:28:39.431Z,3.50
2023-03-13T01:33:47.543Z,3.60
2023-03-13T01:38:57.336Z,3.60
2023-03-13T01:44:05.005Z,3.60
2023-03-13T01:49:16.215Z,3.70
2023-03-13T01:54:36.650Z,3.70
2023-03-13T01:59:53.643Z,3.40
2023-03-13T02:05:05.450Z,3.40
2023-03-13T02:10:13.661Z,3.20
2023-03-13T02:15:27.608Z,3.10
2023-03-13T02:20:33.211Z,3.00
2023-03-13T02:25:54.537Z,2.90
2023-03-13T02:31:02.365Z,3.00
2023-03-13T02:36:11.335Z,3.00
2023-03-13T02:41:19.817Z,3.30
2023-03-13T02:46:26.569Z,3.10
2023-03-13T02:51:43.446Z,3.20
2023-03-13T02:56:54.834Z,3.20
2023-03-13T03:02:01.533Z,3.20
2023-03-13T03:07:08.225Z,3.20
2023-03-13T03:12:14.917Z,3.20
2023-03-13T03:17:22.506Z,3.20
2023-03-13T03:22:29.170Z,3.20
2023-03-13T03:27:36.819Z,3.20
2023-03-13T03:32:43.558Z,3.20
2023-03-13T03:37:50.302Z,3.40
2023-03-13T03:42:57.002Z,3.30
2023-03-13T03:48:03.688Z,3.10
2023-03-13T03:53:10.371Z,3.10
2023-03-13T03:58:17.078Z,3.20
2023-03-13T04:03:23.958Z,3.50
2023-03-13T04:08:30.733Z,3.30
2023-03-13T04:13:37.445Z,3.30
2023-03-13T04:18:44.651Z,3.30
2023-03-13T04:23:51.329Z,3.30
2023-03-13T04:28:58.042Z,3.50
2023-03-13T04:34:04.718Z,3.50
2023-03-13T04:39:11.480Z,3.60
2023-03-13T04:44:18.183Z,3.60
2023-03-13T04:49:24.901Z,3.50
2023-03-13T04:54:32.409Z,3.50
2023-03-13T04:59:39.525Z,3.70
2023-03-13T05:04:46.334Z,3.80
2023-03-13T05:09:53.380Z,3.80
2023-03-13T05:15:00.080Z,4.00
2023-03-13T05:20:09.580Z,3.90
2023-03-13T05:25:16.481Z,3.80
2023-03-13T05:30:23.500Z,4.00
2023-03-13T05:35:30.507Z,4.20
2023-03-13T05:40:37.489Z,3.90
2023-03-13T05:45:44.990Z,4.00
2023-03-13T05:50:51.757Z,4.10
2023-03-13T05:55:58.712Z,4.30
2023-03-13T06:01:12.051Z,4.30
2023-03-13T06:06:18.878Z,4.30
2023-03-13T06:11:25.979Z,4.30
2023-03-13T06:16:33.122Z,4.40
2023-03-13T06:21:41.156Z,4.50
2023-03-13T06:26:52.293Z,4.60
2023-03-13T06:31:59.154Z,4.70
2023-03-13T06:37:06.187Z,4.90
2023-03-13T06:42:13.157Z,5.10
2023-03-13T06:47:20.345Z,5.20
2023-03-13T06:52:37.770Z,5.30
2023-03-13T06:57:35.821Z,5.40
2023-03-13T07:02:42.674Z,5.50
2023-03-13T07:07:49.598Z,5.40
2023-03-13T07:12:56.676Z,5.40
2023-03-13T07:18:03.882Z,5.60
2023-03-13T07:23:10.961Z,5.40
2023-03-13T07:28:18.089Z,5.50
2023-03-13T07:33:25.136Z,5.10
2023-03-13T07:38:31.977Z,5.40
2023-03-13T07:43:39.124Z,5.60
2023-03-13T07:48:46.429Z,5.60
2023-03-13T07:53:53.962Z,5.70
2023-03-13T07:59:01.105Z,5.70
2023-03-13T08:04:08.161Z,5.70
2023-03-13T08:09:14.951Z,5.50
2023-03-13T08:14:21.926Z,5.40
2023-03-13T08:19:29.577Z,5.50
2023-03-13T08:24:36.459Z,5.40
2023-03-13T08:29:43.334Z,5.20
2023-03-13T08:34:50.741Z,5.60
2023-03-13T08:39:57.744Z,5.90
2023-03-13T08:45:05.399Z,6.00
2023-03-13T08:50:12.935Z,6.00
2023-03-13T08:55:19.977Z,6.10
2023-03-13T09:00:26.984Z,6.20
2023-03-13T09:05:40.689Z,6.90
2023-03-13T09:10:43.412Z,6.70
2023-03-13T09:16:03.173Z,6.70
2023-03-13T09:21:17.763Z,7.00
2023-03-13T09:26:26.157Z,7.10
2023-03-13T09:31:35.303Z,7.30
2023-03-13T09:36:42.881Z,7.40
2023-03-13T09:42:17.639Z,7.70
2023-03-13T09:47:43.451Z,9.00
2023-03-13T09:52:55.188Z,9.40
2023-03-13T09:58:11.827Z,9.70
2023-03-13T10:03:34.986Z,10.40
2023-03-13T10:08:41.865Z,10.70
2023-03-13T10:14:09.790Z,10.60
2023-03-13T10:19:24.135Z,11.00
2023-03-13T10:24:50.890Z,11.70
2023-03-13T10:29:57.745Z,12.40
2023-03-13T10:35:05.802Z,12.20
2023-03-13T10:40:25.397Z,11.80
2023-03-13T10:45:36.625Z,12.00
2023-03-13T10:50:50.740Z,10.50
2023-03-13T10:56:05.565Z,10.40
2023-03-13T11:01:25.364Z,10.40
2023-03-13T11:06:37.023Z,11.00
2023-03-13T11:12:00.344Z,11.20
2023-03-13T11:17:40.888Z,11.50
2023-03-13T11:23:26.870Z,11.10
2023-03-13T11:29:03.534Z,11.00
2023-03-13T11:34:35.753Z,10.90
2023-03-13T11:39:58.791Z,10.60
2023-03-13T11:45:24.893Z,11.20
2023-03-13T11:50:41.597Z,11.30
2023-03-13T11:56:13.840Z,11.20
2023-03-13T12:01:24.767Z,11.30
2023-03-13T12:06:48.363Z,11.40
2023-03-13T12:12:08.490Z,11.80
2023-03-13T12:17:36.893Z,11.80
2023-03-13T12:23:21.185Z,12.00
2023-03-13T12:28:56.354Z,11.80
2023-03-13T12:34:27.066Z,11.40
2023-03-13T12:39:53.404Z,11.00
2023-03-13T12:45:02.113Z,11.00
2023-03-13T12:50:26.066Z,11.50
2023-03-13T12:55:46.062Z,11.30
2023-03-13T13:00:54.694Z,11.50
2023-03-13T13:06:06.132Z,11.40
2023-03-13T13:11:42.966Z,11.50
2023-03-13T13:17:00.105Z,11.70
2023-03-13T13:22:39.910Z,11.50
2023-03-13T13:27:51.318Z,11.10
2023-03-13T13:33:22.945Z,11.00
2023-03-13T13:38:35.955Z,10.90
2023-03-13T13:43:51.504Z,10.70
2023-03-13T13:49:22.218Z,10.50
2023-03-13T13:54:53.119Z,10.60
2023-03-13T14:00:25.663Z,10.50
2023-03-13T14:05:35.096Z,10.50
2023-03-13T14:10:48.522Z,10.60
2023-03-13T14:15:56.152Z,10.30
2023-03-13T14:21:11.309Z,10.50
2023-03-13T14:26:30.894Z,10.70
2023-03-13T14:31:41.208Z,10.90
2023-03-13T14:37:14.818Z,10.60
2023-03-13T14:42:16.114Z,10.70
2023-03-13T14:47:33.746Z,10.80
2023-03-13T14:52:49.898Z,11.00
2023-03-13T14:58:09.851Z,11.40
2023-03-13T15:03:25.355Z,11.30
2023-03-13T15:08:33.524Z,11.00
2023-03-13T15:13:40.506Z,11.10
2023-03-13T15:18:47.646Z,11.30
2023-03-13T15:24:02.465Z,11.50
2023-03-13T15:29:10.332Z,11.20
2023-03-13T15:34:18.246Z,11.20
2023-03-13T15:39:25.372Z,11.30
2023-03-13T15:44:32.310Z,11.20
2023-03-13T15:49:39.182Z,10.90
2023-03-13T15:54:48.032Z,10.90
2023-03-13T15:59:56.355Z,11.00
2023-03-13T16:05:05.319Z,10.80
2023-03-13T16:10:25.093Z,10.50
2023-03-13T16:15:31.216Z,10.40
2023-03-13T16:20:38.349Z,10.20
2023-03-13T16:25:47.263Z,10.10
2023-03-13T16:30:55.743Z,10.00
2023-03-13T16:36:03.041Z,9.60
2023-03-13T16:41:12.585Z,9.40
2023-03-13T16:46:23.366Z,9.30
2023-03-13T16:51:31.216Z,9.30
2023-03-13T16:56:44.220Z,9.20
2023-03-13T17:01:51.668Z,9.10
2023-03-13T17:06:58.692Z,9.10
2023-03-13T17:12:05.741Z,9.10
2023-03-13T17:17:19.445Z,9.10
2023-03-13T17:22:26.122Z,9.10
2023-03-13T17:27:33.863Z,9.10
2023-03-13T17:32:40.842Z,9.00
2023-03-13T17:37:48.425Z,8.70
2023-03-13T17:42:56.705Z,8.50
2023-03-13T17:48:03.733Z,8.50
2023-03-13T17:53:10.580Z,8.40
2023-03-13T17:58:17.570Z,8.50
2023-03-13T18:03:24.843Z,8.60
2023-03-13T18:08:32.066Z,8.70
2023-03-13T18:13:40.055Z,8.40
2023-03-13T18:18:46.743Z,8.10
2023-03-13T18:23:53.899Z,8.00
2023-03-13T18:29:02.213Z,8.20
2023-03-13T18:34:09.000Z,8.20
2023-03-13T18:39:17.895Z,8.00
2023-03-13T18:44:24.619Z,8.00
2023-03-13T18:49:31.405Z,8.00
2023-03-13T18:54:38.418Z,8.10
2023-03-13T18:59:46.015Z,8.20
2023-03-13T19:04:52.929Z,7.90
2023-03-13T19:10:01.447Z,7.90
2023-03-13T19:15:09.994Z,8.10
2023-03-13T19:20:21.258Z,8.30
2023-03-13T19:25:29.681Z,8.40
2023-03-13T19:30:36.654Z,8.30
2023-03-13T19:35:43.630Z,8.10
2023-03-13T19:40:50.354Z,8.00
2023-03-13T19:45:57.162Z,7.90
2023-03-13T19:51:03.922Z,8.10
2023-03-13T19:56:22.601Z,8.20
2023-03-13T20:01:30.425Z,8.50
2023-03-13T20:06:38.422Z,8.60
2023-03-13T20:11:46.274Z,8.50
2023-03-13T20:16:53.352Z,8.90
2023-03-13T20:22:02.534Z,9.00
2023-03-13T20:27:09.456Z,8.30
2023-03-13T20:32:16.403Z,8.40
2023-03-13T20:37:23.378Z,8.50
2023-03-13T20:42:31.005Z,8.60
2023-03-13T20:47:39.300Z,8.20
2023-03-13T20:52:46.064Z,7.70
2023-03-13T20:57:53.297Z,8.10
2023-03-13T21:03:00.270Z,8.00
2023-03-13T21:08:07.598Z,8.00
2023-03-13T21:13:15.394Z,7.80
2023-03-13T21:18:22.284Z,7.90
2023-03-13T21:23:29.536Z,8.00
2023-03-13T21:28:37.021Z,7.70
2023-03-13T21:33:45.921Z,7.60
2023-03-13T21:38:53.209Z,7.50
2023-03-13T21:43:59.953Z,7.50
2023-03-13T21:49:06.714Z,7.40
2023-03-13T21:54:13.422Z,7.60
2023-03-13T21:59:22.175Z,8.40
2023-03-13T22:04:29.095Z,8.70
2023-03-13T22:09:36.438Z,8.80
2023-03-13T22:14:43.105Z,8.30
2023-03-13T22:19:50.566Z,8.60
2023-03-13T22:24:57.327Z,9.60
2023-03-13T22:30:05.459Z,9.10
2023-03-13T22:35:12.458Z,9.60
2023-03-13T22:40:20.825Z,9.80
2023-03-13T22:45:27.651Z,9.80
2023-03-13T22:50:36.222Z,10.00
2023-03-13T22:55:43.545Z,10.00
2023-03-13T23:00:51.681Z,9.50
2023-03-13T23:06:28.697Z,9.00
2023-03-13T23:11:36.050Z,9.10
2023-03-13T23:16:43.238Z,9.20
2023-03-13T23:21:50.319Z,9.20
2023-03-13T23:26:57.434Z,9.30
2023-03-13T23:32:04.345Z,9.30
2023-03-13T23:37:11.139Z,8.90
2023-03-13T23:42:18.291Z,9.60
2023-03-13T23:47:25.343Z,9.50
2023-03-13T23:52:34.570Z,8.40
2023-03-13T23:57:41.414Z,8.40
